Time;durP1;ratioP1;P1;durP2;ratioP2;P2;SDS_P1;SDS_P2;PMS_P1;PMS_P2;Temp;Humidity;BMP_temperature;BMP_pressure;BME280_temperature;BME280_humidity;BME280_pressure;Samples;Min_cycle;Max_cycle;Signal;HPM_P1;HPM_P2
2022/07/21 00:00:04;;;;;;;11.40;5.80;;;21.20;97.80;;;;;;5017542;28;20041;-66
2022/07/21 00:02:30;;;;;;;9.65;5.30;;;21.20;97.70;;;;;;5035137;28;20058;-61
2022/07/21 00:04:56;;;;;;;15.75;6.15;;;21.20;98.30;;;;;;5031505;28;20030;-70
2022/07/21 00:07:22;;;;;;;11.05;5.38;;;21.10;98.20;;;;;;5031527;28;20096;-73
2022/07/21 00:09:47;;;;;;;14.48;5.38;;;21.10;98.90;;;;;;5032391;28;20494;-73
2022/07/21 00:12:13;;;;;;;10.93;5.15;;;21.10;98.50;;;;;;5033508;28;20033;-73
2022/07/21 00:14:39;;;;;;;11.15;4.97;;;21.10;98.90;;;;;;5031334;28;20048;-72
2022/07/21 00:17:05;;;;;;;14.98;5.88;;;21.10;98.90;;;;;;5031697;28;20055;-65
2022/07/21 00:19:31;;;;;;;11.13;5.47;;;21.00;99.00;;;;;;5031561;28;20021;-67
2022/07/21 00:21:56;;;;;;;10.25;5.47;;;21.00;99.10;;;;;;5031726;28;20013;-73
2022/07/21 00:24:22;;;;;;;13.65;6.30;;;21.00;98.30;;;;;;5031225;28;20112;-70
2022/07/21 00:26:48;;;;;;;11.10;5.68;;;20.90;98.20;;;;;;5033638;28;20021;-68
2022/07/21 00:29:14;;;;;;;17.25;6.55;;;20.90;98.30;;;;;;5031062;28;20029;-72
2022/07/21 00:31:40;;;;;;;15.15;6.35;;;21.00;98.00;;;;;;5031088;28;20033;-68
2022/07/21 00:34:06;;;;;;;13.65;6.10;;;21.00;97.90;;;;;;5031070;28;20028;-67
2022/07/21 00:36:31;;;;;;;17.08;7.07;;;21.00;97.80;;;;;;5035313;28;20025;-67
2022/07/21 00:38:57;;;;;;;9.20;4.95;;;21.00;97.40;;;;;;5031253;28;20023;-73
2022/07/21 00:41:23;;;;;;;17.00;5.65;;;21.10;98.00;;;;;;5030945;28;20080;-72
2022/07/21 00:43:49;;;;;;;11.07;5.72;;;21.10;98.30;;;;;;5030967;28;20021;-63
2022/07/21 00:46:15;;;;;;;12.60;5.95;;;21.00;98.30;;;;;;5031039;28;20036;-70
2022/07/21 00:48:41;;;;;;;12.88;6.20;;;21.00;98.00;;;;;;5031235;28;20024;-73
2022/07/21 00:51:06;;;;;;;11.18;5.93;;;20.90;97.80;;;;;;5031157;28;20064;-73
2022/07/21 00:53:32;;;;;;;11.43;5.40;;;20.90;98.50;;;;;;5033436;28;20025;-71
2022/07/21 00:55:59;;;;;;;16.35;5.78;;;20.80;98.50;;;;;;5037443;28;20593;-73
2022/07/21 00:58:25;;;;;;;12.43;5.63;;;20.70;98.50;;;;;;5037380;28;20097;-72
2022/07/21 01:00:51;;;;;;;11.07;5.60;;;20.70;98.40;;;;;;5039850;28;20112;-73
2022/07/21 01:03:17;;;;;;;13.57;5.38;;;20.70;98.60;;;;;;5055589;28;20377;-73
2022/07/21 01:05:43;;;;;;;14.20;6.00;;;20.70;98.50;;;;;;5055697;28;20028;-74
2022/07/21 01:08:09;;;;;;;9.88;5.28;;;20.60;98.60;;;;;;5057197;28;20066;-73
2022/07/21 01:10:35;;;;;;;11.70;5.68;;;20.60;99.00;;;;;;5058832;28;20116;-73
2022/07/21 01:13:01;;;;;;;11.30;4.97;;;20.50;98.90;;;;;;5058848;28;20167;-72
2022/07/21 01:15:28;;;;;;;11.70;5.95;;;20.50;99.00;;;;;;5058669;28;20060;-72
2022/07/21 01:17:54;;;;;;;11.73;5.13;;;20.50;99.10;;;;;;5058015;28;20078;-72
2022/07/21 01:20:21;;;;;;;9.52;5.13;;;20.60;99.30;;;;;;5058858;28;20135;-73
2022/07/21 01:22:49;;;;;;;11.68;5.43;;;20.60;98.90;;;;;;5059046;28;20048;-73
2022/07/21 01:25:16;;;;;;;13.68;5.13;;;20.50;98.90;;;;;;5058722;28;20036;-73
2022/07/21 01:27:42;;;;;;;11.60;5.80;;;20.50;98.90;;;;;;5054717;28;20044;-71
2022/07/21 01:30:09;;;;;;;13.07;5.15;;;20.40;99.20;;;;;;5052619;28;20757;-72
2022/07/21 01:32:36;;;;;;;12.75;5.45;;;20.40;99.20;;;;;;5044994;28;20063;-72
2022/07/21 01:35:03;;;;;;;11.35;4.65;;;20.30;99.10;;;;;;5058825;28;20033;-72
2022/07/21 01:37:31;;;;;;;12.43;5.82;;;20.30;99.40;;;;;;5058025;28;20434;-71
2022/07/21 01:42:41;;;;;;;8.93;5.38;;;20.20;99.70;;;;;;5058616;28;20422;-72
2022/07/21 01:45:07;;;;;;;12.43;5.18;;;20.30;99.60;;;;;;5058632;28;20025;-71
2022/07/21 01:47:34;;;;;;;18.65;5.72;;;20.20;99.30;;;;;;5056112;28;20032;-72
2022/07/21 01:50:01;;;;;;;12.02;5.47;;;20.20;99.70;;;;;;5057462;28;20033;-72
2022/07/21 01:52:27;;;;;;;8.70;5.07;;;20.10;99.40;;;;;;5049924;28;20021;-72
2022/07/21 01:54:53;;;;;;;14.98;6.05;;;20.10;99.70;;;;;;5058390;28;20009;-71
2022/07/21 01:57:19;;;;;;;11.13;5.80;;;20.00;99.70;;;;;;5057713;28;20021;-73
2022/07/21 01:59:45;;;;;;;15.73;5.60;;;19.90;99.90;;;;;;5056531;28;20025;-73
2022/07/21 02:02:11;;;;;;;14.63;5.80;;;19.80;99.90;;;;;;5058284;28;20099;-73
2022/07/21 02:04:37;;;;;;;14.35;5.70;;;19.90;99.90;;;;;;5056927;28;20029;-73
2022/07/21 02:07:03;;;;;;;11.40;5.03;;;19.90;99.90;;;;;;5055064;28;20029;-72
2022/07/21 02:09:29;;;;;;;17.40;5.93;;;19.90;99.90;;;;;;5053349;28;20029;-73
2022/07/21 02:11:55;;;;;;;20.20;6.07;;;19.80;99.90;;;;;;5055226;28;20025;-72
2022/07/21 02:14:21;;;;;;;12.93;6.03;;;19.80;99.90;;;;;;5036585;28;20021;-72
2022/07/21 02:16:46;;;;;;;15.60;5.70;;;19.80;99.90;;;;;;5054922;28;20037;-72
2022/07/21 02:19:12;;;;;;;13.75;6.30;;;19.70;99.90;;;;;;5054570;28;20021;-73
2022/07/21 02:21:38;;;;;;;11.35;5.47;;;19.60;99.90;;;;;;5055007;28;20356;-71
2022/07/21 02:24:05;;;;;;;8.45;5.20;;;19.60;99.90;;;;;;5055415;28;20368;-72
2022/07/21 02:26:32;;;;;;;10.80;4.95;;;19.60;99.90;;;;;;5054812;28;20029;-72
2022/07/21 02:28:57;;;;;;;13.52;5.75;;;19.50;99.90;;;;;;5046145;28;20024;-73
2022/07/21 02:31:23;;;;;;;8.60;5.45;;;19.50;99.90;;;;;;5054792;28;20037;-73
2022/07/21 02:33:49;;;;;;;12.60;5.68;;;19.40;99.90;;;;;;5053926;28;20035;-73
2022/07/21 02:36:15;;;;;;;11.18;5.45;;;19.40;99.90;;;;;;5054867;28;20033;-72
2022/07/21 02:38:41;;;;;;;17.35;5.53;;;19.50;99.90;;;;;;5054033;28;20032;-74
2022/07/21 02:41:07;;;;;;;10.60;4.82;;;19.60;99.90;;;;;;5045881;28;20361;-73
2022/07/21 02:43:32;;;;;;;9.38;5.50;;;19.60;99.90;;;;;;5054472;28;20356;-73
2022/07/21 02:45:58;;;;;;;14.68;6.00;;;19.50;99.90;;;;;;5036829;28;20043;-73
2022/07/21 02:48:24;;;;;;;12.98;5.22;;;19.40;99.90;;;;;;5046771;28;20080;-74
2022/07/21 02:50:50;;;;;;;13.43;5.80;;;19.30;99.90;;;;;;5050949;28;20128;-73
2022/07/21 02:53:19;;;;;;;9.50;5.47;;;19.20;99.90;;;;;;5054540;28;20021;-72
2022/07/21 02:55:47;;;;;;;10.80;5.70;;;19.10;99.90;;;;;;5054342;28;20037;-71
2022/07/21 02:58:18;;;;;;;9.20;5.30;;;19.10;99.90;;;;;;5053504;28;20020;-74
2022/07/21 03:00:52;;;;;;;16.05;6.85;;;19.00;99.90;;;;;;5054225;28;20086;-72
2022/07/21 03:03:18;;;;;;;9.57;5.47;;;19.00;99.90;;;;;;5054289;28;20120;-72
2022/07/21 03:05:44;;;;;;;10.52;5.00;;;19.00;99.90;;;;;;5054135;28;20387;-73
2022/07/21 03:08:10;;;;;;;10.77;5.47;;;19.10;99.90;;;;;;5049310;28;20111;-73
2022/07/21 03:10:37;;;;;;;11.63;5.32;;;19.00;99.90;;;;;;5049664;28;20383;-73
2022/07/21 03:13:04;;;;;;;13.93;6.13;;;19.00;99.90;;;;;;5053283;28;20025;-73
2022/07/21 03:15:31;;;;;;;10.88;5.97;;;19.00;99.90;;;;;;5049706;28;20075;-71
2022/07/21 03:17:58;;;;;;;10.90;4.90;;;18.90;99.90;;;;;;5045814;28;20469;-74
2022/07/21 03:20:29;;;;;;;12.05;5.68;;;18.90;99.90;;;;;;5053665;28;20048;-72
2022/07/21 03:22:56;;;;;;;12.30;5.80;;;18.80;99.90;;;;;;5035923;28;20037;-74
2022/07/21 03:25:22;;;;;;;10.18;5.18;;;18.80;99.90;;;;;;5053320;28;20036;-73
2022/07/21 03:27:48;;;;;;;17.67;7.10;;;18.80;99.90;;;;;;5052694;28;20134;-73
2022/07/21 03:30:15;;;;;;;13.57;6.20;;;18.80;99.90;;;;;;5053531;28;21220;-73
2022/07/21 03:32:41;;;;;;;12.95;6.85;;;18.90;99.90;;;;;;5053495;28;20421;-73
2022/07/21 03:35:10;;;;;;;11.75;6.28;;;19.00;99.90;;;;;;5053638;28;20494;-73
2022/07/21 03:38:08;;;;;;;11.43;6.43;;;19.00;99.90;;;;;;5052563;28;20028;-72
2022/07/21 03:40:36;;;;;;;10.77;6.00;;;19.00;99.90;;;;;;4991861;28;20048;-72
2022/07/21 03:43:04;;;;;;;11.38;6.18;;;19.10;99.90;;;;;;4989148;28;20034;-72
2022/07/21 03:45:31;;;;;;;9.27;5.85;;;19.20;99.90;;;;;;4988335;28;20117;-73
2022/07/21 03:48:01;;;;;;;12.43;7.18;;;19.40;99.90;;;;;;4991936;28;20515;-74
2022/07/21 03:50:28;;;;;;;13.00;6.40;;;19.90;99.90;;;;;;4991575;28;20046;-73
2022/07/21 03:52:54;;;;;;;10.82;6.13;;;19.90;99.90;;;;;;4990883;28;20026;-72
2022/07/21 03:55:20;;;;;;;12.60;6.28;;;20.60;99.70;;;;;;4989255;28;20034;-72
2022/07/21 03:57:50;;;;;;;14.25;6.93;;;21.00;97.40;;;;;;4990407;28;20396;-73
2022/07/21 04:00:22;;;;;;;12.80;5.80;;;21.30;96.20;;;;;;4990201;28;20150;-74
2022/07/21 04:02:49;;;;;;;10.00;5.82;;;22.00;93.70;;;;;;4989715;28;20054;-74
2022/07/21 04:05:16;;;;;;;15.60;5.90;;;22.30;92.10;;;;;;4990877;28;20054;-72
2022/07/21 04:07:44;;;;;;;9.80;5.47;;;22.80;90.50;;;;;;4991349;28;20717;-73
2022/07/21 04:10:11;;;;;;;12.88;6.13;;;23.10;88.50;;;;;;4990375;28;20149;-71
2022/07/21 04:12:38;;;;;;;13.95;6.00;;;24.00;86.40;;;;;;4991247;28;20038;-73
2022/07/21 04:15:06;;;;;;;14.27;6.10;;;24.30;82.40;;;;;;4993986;28;20037;-73
2022/07/21 04:17:33;;;;;;;10.55;5.60;;;24.60;80.10;;;;;;5052691;28;20438;-73
2022/07/21 04:19:58;;;;;;;16.35;5.90;;;24.60;79.50;;;;;;5051672;28;20123;-71
2022/07/21 04:22:24;;;;;;;12.45;6.72;;;24.70;78.30;;;;;;5040638;28;20052;-73
2022/07/21 04:24:50;;;;;;;18.95;6.57;;;25.00;76.90;;;;;;5052592;28;20432;-73
2022/07/21 04:27:16;;;;;;;12.52;6.82;;;25.00;76.40;;;;;;5052099;28;20593;-72
2022/07/21 04:29:42;;;;;;;12.63;5.60;;;25.40;75.70;;;;;;5051494;28;20115;-72
2022/07/21 04:32:08;;;;;;;10.43;5.97;;;25.40;74.30;;;;;;5052470;28;20146;-73
2022/07/21 04:34:34;;;;;;;11.38;6.25;;;25.90;73.70;;;;;;5034529;28;20423;-73
2022/07/21 04:37:02;;;;;;;16.40;5.55;;;26.30;73.70;;;;;;5052136;28;20410;-72
2022/07/21 04:39:28;;;;;;;14.13;6.05;;;27.30;71.50;;;;;;5051838;28;20025;-72
2022/07/21 04:41:54;;;;;;;15.35;7.07;;;27.80;70.30;;;;;;5052197;28;20029;-72
2022/07/21 04:44:20;;;;;;;14.52;6.68;;;28.10;68.90;;;;;;5051854;28;20100;-73
2022/07/21 04:46:46;;;;;;;11.73;6.00;;;28.50;67.70;;;;;;5051585;28;20146;-72
2022/07/21 04:49:12;;;;;;;15.63;6.10;;;28.70;67.50;;;;;;5052136;28;20021;-72
2022/07/21 04:51:38;;;;;;;12.57;6.78;;;;;;;;;;5051821;28;20127;-71
2022/07/21 04:54:04;;;;;;;13.63;6.53;;;;;;;;;;5050875;28;20023;-72
2022/07/21 04:56:31;;;;;;;13.38;7.57;;;29.00;65.20;;;;;;5052305;28;20119;-71
2022/07/21 04:58:58;;;;;;;19.73;7.63;;;29.40;65.70;;;;;;5051973;28;20468;-73
2022/07/21 05:01:24;;;;;;;17.48;9.05;;;;;;;;;;5051750;28;20491;-73
2022/07/21 05:03:50;;;;;;;12.90;5.30;;;29.80;67.40;;;;;;5051327;28;20595;-73
2022/07/21 05:06:16;;;;;;;13.55;6.07;;;;;;;;;;5051991;28;20115;-73
2022/07/21 05:08:42;;;;;;;12.95;5.50;;;27.70;65.20;;;;;;5052237;28;20025;-72
2022/07/21 05:11:10;;;;;;;12.05;6.18;;;26.70;67.40;;;;;;5051820;28;20368;-72
2022/07/21 05:13:36;;;;;;;11.52;5.38;;;26.70;67.70;;;;;;5051174;28;20021;-72
2022/07/21 05:16:02;;;;;;;11.00;5.82;;;26.90;71.60;;;;;;5029066;28;20475;-72
2022/07/21 05:18:28;;;;;;;12.15;4.50;;;26.50;72.80;;;;;;5051856;28;20487;-73
2022/07/21 05:20:54;;;;;;;12.85;5.22;;;26.20;73.20;;;;;;5051715;28;20025;-72
2022/07/21 05:23:19;;;;;;;10.43;4.93;;;26.10;68.80;;;;;;5049804;28;20017;-67
2022/07/21 05:25:45;;;;;;;13.75;5.03;;;26.40;69.80;;;;;;5051778;28;20075;-72
2022/07/21 05:28:11;;;;;;;13.65;5.50;;;26.50;68.70;;;;;;5051822;28;20021;-73
2022/07/21 05:30:37;;;;;;;11.43;5.20;;;26.10;69.50;;;;;;5051446;28;20112;-72
2022/07/21 05:33:03;;;;;;;11.20;4.82;;;26.30;69.60;;;;;;5051238;28;20035;-72
2022/07/21 05:35:29;;;;;;;22.50;5.28;;;26.50;71.00;;;;;;5050602;28;20029;-73
2022/07/21 05:37:54;;;;;;;13.20;5.97;;;26.60;71.30;;;;;;5051738;28;20435;-72
2022/07/21 05:40:20;;;;;;;15.07;5.55;;;26.50;71.70;;;;;;5035926;28;20137;-71
2022/07/21 05:42:46;;;;;;;12.20;5.55;;;26.50;71.10;;;;;;5055379;28;20021;-72
2022/07/21 05:45:12;;;;;;;24.67;6.03;;;26.70;70.10;;;;;;5048221;28;20112;-72
2022/07/21 05:47:39;;;;;;;27.75;5.40;;;26.70;71.20;;;;;;5053725;28;20052;-73
2022/07/21 05:50:05;;;;;;;13.50;5.18;;;26.90;72.00;;;;;;5055452;28;20182;-73
2022/07/21 05:52:31;;;;;;;12.85;4.78;;;26.90;70.90;;;;;;5055105;28;20096;-73
2022/07/21 05:54:57;;;;;;;12.90;5.20;;;27.20;70.50;;;;;;5048992;28;20116;-72
2022/07/21 05:57:22;;;;;;;11.73;5.60;;;27.30;69.90;;;;;;5049626;28;20548;-72
2022/07/21 05:59:48;;;;;;;17.33;5.75;;;27.30;70.80;;;;;;5053706;28;20391;-72
2022/07/21 06:02:15;;;;;;;13.45;5.43;;;27.50;70.30;;;;;;5054890;28;20171;-73
2022/07/21 06:04:41;;;;;;;11.07;5.65;;;27.60;69.10;;;;;;5055159;28;20083;-73
2022/07/21 06:07:07;;;;;;;13.48;5.05;;;27.60;69.00;;;;;;5054838;28;20025;-73
2022/07/21 06:09:33;;;;;;;9.10;4.43;;;27.60;68.30;;;;;;5051015;28;20056;-72
2022/07/21 06:11:59;;;;;;;13.75;4.78;;;27.70;67.80;;;;;;5053811;28;20467;-72
2022/07/21 06:14:25;;;;;;;16.63;4.57;;;27.60;67.80;;;;;;5054982;28;20029;-73
2022/07/21 06:16:51;;;;;;;16.08;4.93;;;27.80;67.50;;;;;;5054907;28;20021;-73
2022/07/21 06:19:17;;;;;;;13.30;4.38;;;27.90;66.30;;;;;;5054220;28;20116;-72
2022/07/21 06:21:42;;;;;;;15.00;4.22;;;28.00;66.60;;;;;;5054721;28;20090;-72
2022/07/21 06:24:09;;;;;;;7.75;3.55;;;28.20;66.20;;;;;;5053787;28;20021;-71
2022/07/21 06:26:35;;;;;;;11.10;3.92;;;28.40;66.30;;;;;;5047915;28;20035;-73
2022/07/21 06:29:01;;;;;;;13.50;4.30;;;;;;;;;;5053047;28;20032;-73
2022/07/21 06:31:27;;;;;;;12.52;4.47;;;28.30;65.90;;;;;;5053053;28;20033;-73
2022/07/21 06:33:53;;;;;;;8.27;3.78;;;28.40;66.30;;;;;;5054164;28;20028;-73
2022/07/21 06:36:19;;;;;;;10.05;3.65;;;28.50;65.80;;;;;;5054126;28;20032;-73
2022/07/21 06:38:44;;;;;;;11.57;3.90;;;28.80;64.90;;;;;;5052652;28;20364;-72
2022/07/21 06:41:11;;;;;;;8.07;4.22;;;28.80;65.40;;;;;;5054271;28;20034;-73
2022/07/21 06:43:37;;;;;;;7.85;3.72;;;29.00;64.30;;;;;;5054378;28;20104;-71
2022/07/21 06:46:03;;;;;;;18.60;4.72;;;;;;;;;;5054452;28;20147;-72
2022/07/21 06:48:29;;;;;;;18.52;4.35;;;29.50;65.20;;;;;;5053858;28;20040;-73
2022/07/21 06:50:55;;;;;;;18.60;4.60;;;29.40;65.50;;;;;;5048147;28;20029;-73
2022/07/21 06:53:23;;;;;;;10.65;4.78;;;;;;;;;;5054265;28;20154;-72
2022/07/21 06:55:52;;;;;;;16.98;5.18;;;29.70;63.60;;;;;;5054104;28;20029;-73
2022/07/21 06:58:24;;;;;;;12.85;4.80;;;29.70;62.70;;;;;;5054204;28;20126;-73
2022/07/21 07:00:50;;;;;;;15.52;4.63;;;29.90;63.70;;;;;;5043949;28;20028;-73
2022/07/21 07:03:18;;;;;;;19.70;4.55;;;29.60;62.90;;;;;;5046404;28;20050;-73
2022/07/21 07:05:45;;;;;;;7.57;4.18;;;29.90;62.30;;;;;;5047875;28;20107;-72
2022/07/21 07:08:12;;;;;;;19.98;4.85;;;30.10;62.60;;;;;;5053146;28;20029;-73
2022/07/21 07:10:40;;;;;;;14.27;4.28;;;30.20;67.00;;;;;;5052128;28;20479;-70
2022/07/21 07:13:06;;;;;;;13.57;4.13;;;30.50;62.20;;;;;;5047181;28;20029;-72
2022/07/21 07:15:32;;;;;;;12.35;4.07;;;30.70;61.20;;;;;;5053435;28;20032;-63
2022/07/21 07:17:58;;;;;;;8.48;3.78;;;30.80;61.70;;;;;;5053460;28;20074;-67
2022/07/21 07:20:23;;;;;;;10.15;4.22;;;30.80;61.30;;;;;;5052155;28;20064;-69
2022/07/21 07:22:50;;;;;;;11.88;4.10;;;31.00;61.60;;;;;;5052877;28;20029;-62
2022/07/21 07:25:17;;;;;;;10.15;3.58;;;;;;;;;;5052779;28;20033;-70
2022/07/21 07:27:49;;;;;;;9.70;3.33;;;31.20;60.00;;;;;;5053042;28;20028;-65
2022/07/21 07:30:15;;;;;;;6.80;3.63;;;;;;;;;;5052672;28;20076;-72
2022/07/21 07:32:41;;;;;;;9.13;3.78;;;31.70;59.80;;;;;;5053613;28;20029;-64
2022/07/21 07:35:09;;;;;;;9.50;4.10;;;31.60;61.20;;;;;;5053504;28;20108;-72
2022/07/21 07:37:37;;;;;;;10.10;3.50;;;31.80;59.60;;;;;;5053216;28;20013;-62
2022/07/21 07:40:09;;;;;;;10.27;3.63;;;31.70;59.20;;;;;;5051757;28;20036;-71
2022/07/21 07:42:37;;;;;;;10.00;3.95;;;31.70;59.60;;;;;;5053081;28;20067;-71
2022/07/21 07:45:05;;;;;;;6.00;3.60;;;32.00;60.10;;;;;;5053102;28;20025;-72
2022/07/21 07:47:31;;;;;;;7.30;3.90;;;32.40;58.00;;;;;;5051420;28;20105;-71
2022/07/21 07:49:57;;;;;;;6.57;3.05;;;32.40;57.60;;;;;;5044587;28;20467;-72
2022/07/21 07:52:23;;;;;;;8.40;4.25;;;32.50;57.60;;;;;;5029802;28;20041;-73
2022/07/21 07:54:49;;;;;;;6.50;3.25;;;32.40;57.60;;;;;;5053050;28;20215;-74
2022/07/21 07:57:15;;;;;;;7.47;3.58;;;32.30;57.20;;;;;;5052711;28;20565;-72
2022/07/21 07:59:42;;;;;;;17.10;3.72;;;32.30;56.60;;;;;;5033662;28;20060;-71
2022/07/21 08:02:08;;;;;;;9.00;3.70;;;32.60;57.00;;;;;;5051150;28;20182;-73
2022/07/21 08:04:35;;;;;;;8.95;4.13;;;32.80;57.20;;;;;;5049100;28;20104;-67
2022/07/21 08:07:01;;;;;;;7.03;3.58;;;;;;;;;;5051367;28;20021;-69
2022/07/21 08:09:27;;;;;;;9.75;3.40;;;32.90;54.70;;;;;;5052368;28;20395;-72
2022/07/21 08:11:53;;;;;;;4.85;3.10;;;32.80;56.40;;;;;;5052011;28;20044;-69
2022/07/21 08:14:19;;;;;;;8.35;4.00;;;32.80;57.40;;;;;;5040581;28;20033;-72
2022/07/21 08:16:45;;;;;;;9.40;3.28;;;33.00;55.00;;;;;;5051627;28;20467;-73
2022/07/21 08:19:12;;;;;;;6.78;3.92;;;33.10;55.50;;;;;;5052316;28;20066;-71
2022/07/21 08:21:38;;;;;;;6.32;2.70;;;33.30;54.70;;;;;;5052054;28;20025;-72
2022/07/21 08:24:04;;;;;;;6.57;2.80;;;32.40;84.40;;;;;;5051901;28;20036;-72
2022/07/21 08:26:30;;;;;;;25.83;3.97;;;33.70;54.00;;;;;;5049617;28;20028;-73
2022/07/21 08:28:57;;;;;;;7.35;2.95;;;33.70;53.10;;;;;;5045524;28;20029;-71
2022/07/21 08:31:23;;;;;;;7.55;3.08;;;33.80;54.40;;;;;;5051719;28;20037;-71
2022/07/21 08:33:50;;;;;;;12.40;3.33;;;33.70;56.10;;;;;;5052283;28;20032;-72
2022/07/21 08:36:16;;;;;;;6.38;3.30;;;;;;;;;;5051385;28;20048;-72
2022/07/21 08:38:42;;;;;;;9.02;3.53;;;33.80;88.60;;;;;;5052064;28;20021;-71
2022/07/21 08:41:09;;;;;;;10.10;3.47;;;;;;;;;;5048486;28;20033;-72
2022/07/21 08:43:35;;;;;;;8.50;2.95;;;34.10;71.60;;;;;;5035191;28;20387;-72
2022/07/21 08:46:02;;;;;;;10.25;3.05;;;33.70;54.90;;;;;;5046804;28;20471;-72
2022/07/21 08:48:29;;;;;;;5.65;3.03;;;33.80;84.50;;;;;;5052466;28;20025;-72
2022/07/21 08:50:56;;;;;;;5.68;2.30;;;34.00;52.40;;;;;;5049850;28;20045;-73
2022/07/21 08:53:23;;;;;;;7.68;3.00;;;33.90;52.20;;;;;;5051567;28;20044;-73
2022/07/21 08:55:49;;;;;;;9.57;2.55;;;33.70;53.10;;;;;;5050814;28;20029;-73
2022/07/21 08:58:15;;;;;;;4.25;2.72;;;34.00;54.20;;;;;;5052032;28;20020;-72
2022/07/21 09:00:43;;;;;;;6.43;3.20;;;;;;;;;;5050350;28;20036;-71
2022/07/21 09:03:16;;;;;;;8.60;2.67;;;34.30;53.20;;;;;;5047966;28;20548;-71
2022/07/21 09:05:57;;;;;;;7.63;2.78;;;34.00;53.00;;;;;;5043076;28;20041;-72
2022/07/21 09:08:36;;;;;;;8.07;2.97;;;34.00;53.20;;;;;;5049904;28;20037;-69
2022/07/21 09:11:30;;;;;;;7.88;2.70;;;34.30;54.40;;;;;;5051854;28;20040;-73
2022/07/21 09:14:10;;;;;;;5.20;2.75;;;34.40;54.20;;;;;;5038828;28;20360;-73
2022/07/21 09:16:45;;;;;;;7.18;3.97;;;34.60;54.50;;;;;;5055355;28;20101;-72
2022/07/21 09:19:23;;;;;;;12.20;2.97;;;34.40;52.50;;;;;;5040499;28;20056;-72
2022/07/21 09:21:51;;;;;;;14.88;2.47;;;34.30;51.40;;;;;;5051090;28;20048;-73
2022/07/21 09:24:29;;;;;;;4.15;2.65;;;34.30;52.20;;;;;;5055600;28;20025;-73
2022/07/21 09:27:01;;;;;;;11.60;5.68;;;34.30;52.80;;;;;;5055787;28;20035;-73
2022/07/21 09:29:33;;;;;;;4.85;3.03;;;;;;;;;;5055811;28;20040;-72
2022/07/21 09:32:21;;;;;;;6.38;2.78;;;34.50;49.90;;;;;;5055594;28;20025;-72
2022/07/21 09:34:50;;;;;;;5.85;3.30;;;34.60;52.40;;;;;;5052601;28;20033;-68
2022/07/21 09:37:16;;;;;;;7.28;3.13;;;34.50;52.40;;;;;;5040492;28;20033;-73
2022/07/21 09:39:45;;;;;;;8.63;2.20;;;34.50;51.50;;;;;;5042725;28;20028;-73
2022/07/21 09:42:15;;;;;;;6.47;2.65;;;34.50;50.40;;;;;;5034294;28;20069;-71
2022/07/21 09:44:50;;;;;;;13.03;2.60;;;34.70;51.30;;;;;;5042387;28;20032;-71
2022/07/21 09:47:18;;;;;;;4.72;2.38;;;35.10;69.50;;;;;;5055513;28;20031;-72
2022/07/21 09:49:45;;;;;;;3.70;1.98;;;34.80;69.40;;;;;;5054318;28;20071;-72
2022/07/21 09:52:34;;;;;;;7.32;2.50;;;35.10;82.20;;;;;;5055155;28;20037;-73
2022/07/21 09:55:08;;;;;;;9.13;2.10;;;35.00;68.00;;;;;;5055251;28;20427;-74
2022/07/21 09:57:34;;;;;;;3.15;1.77;;;35.10;68.30;;;;;;5055082;28;20033;-71
2022/07/21 10:00:02;;;;;;;4.05;1.75;;;35.10;68.70;;;;;;5041726;28;20020;-66
2022/07/21 10:02:31;;;;;;;8.30;2.05;;;35.00;68.80;;;;;;5033273;28;20508;-73
2022/07/21 10:05:09;;;;;;;9.13;2.60;;;35.00;67.80;;;;;;5038706;28;20048;-71
2022/07/21 10:07:38;;;;;;;4.15;1.75;;;35.10;68.50;;;;;;5054821;28;20029;-72
2022/07/21 10:10:05;;;;;;;2.67;2.03;;;35.00;67.50;;;;;;5040855;28;20491;-73
2022/07/21 10:12:31;;;;;;;5.25;2.33;;;35.00;68.50;;;;;;5050533;28;20488;-69
2022/07/21 10:14:57;;;;;;;4.82;2.28;;;35.10;68.50;;;;;;5033959;28;20372;-65
2022/07/21 10:17:24;;;;;;;5.00;2.00;;;35.20;76.90;;;;;;5043311;28;20028;-71
2022/07/21 10:20:00;;;;;;;3.15;1.92;;;35.10;76.50;;;;;;5055237;28;20108;-73
2022/07/21 10:22:31;;;;;;;6.07;2.40;;;35.20;76.80;;;;;;5045009;28;20025;-73
2022/07/21 10:24:59;;;;;;;11.70;2.42;;;35.10;76.50;;;;;;5033631;28;20022;-73
2022/07/21 10:27:24;;;;;;;4.30;1.98;;;35.10;76.40;;;;;;5032876;28;20037;-72
2022/07/21 10:29:56;;;;;;;5.38;1.90;;;35.30;79.10;;;;;;5054361;28;20048;-71
2022/07/21 10:32:25;;;;;;;7.65;2.40;;;;;;;;;;5054560;28;20493;-71
2022/07/21 10:34:52;;;;;;;3.00;2.35;;;35.40;67.70;;;;;;5054810;28;20071;-71
2022/07/21 10:37:45;;;;;;;6.90;2.08;;;35.50;71.60;;;;;;5054609;28;20029;-73
2022/07/21 10:40:20;;;;;;;2.85;1.88;;;35.20;70.30;;;;;;5039087;28;20037;-71
2022/07/21 10:43:01;;;;;;;3.10;1.98;;;35.30;71.50;;;;;;5054392;28;20087;-72
2022/07/21 10:45:38;;;;;;;6.32;2.35;;;35.40;73.10;;;;;;5054384;28;20116;-71
2022/07/21 10:48:25;;;;;;;6.15;2.30;;;35.50;73.10;;;;;;5054051;28;20037;-67
2022/07/21 10:50:51;;;;;;;12.85;2.50;;;35.60;75.70;;;;;;5053422;28;20132;-71
2022/07/21 10:53:18;;;;;;;7.93;2.47;;;35.40;78.20;;;;;;5053842;28;20096;-72
2022/07/21 10:55:52;;;;;;;6.85;2.40;;;35.60;50.50;;;;;;5053884;28;20033;-71
2022/07/21 10:58:28;;;;;;;4.85;2.67;;;35.80;49.90;;;;;;5053490;28;20029;-72
2022/07/21 11:01:03;;;;;;;4.10;2.05;;;35.70;49.00;;;;;;5054060;28;20082;-72
2022/07/21 11:03:40;;;;;;;12.70;2.83;;;35.70;49.30;;;;;;5054131;28;20048;-71
2022/07/21 11:06:06;;;;;;;4.55;2.17;;;35.80;49.70;;;;;;5054002;28;20032;-69
2022/07/21 11:08:33;;;;;;;5.07;2.33;;;35.80;48.60;;;;;;5053058;28;20028;-71
2022/07/21 11:11:11;;;;;;;6.10;2.17;;;35.70;47.80;;;;;;5053449;28;20051;-72
2022/07/21 11:14:06;;;;;;;5.90;2.58;;;35.50;48.40;;;;;;5053304;28;20017;-69
2022/07/21 11:16:52;;;;;;;7.63;2.60;;;35.50;47.70;;;;;;5051547;28;20072;-68
2022/07/21 11:19:35;;;;;;;5.78;2.28;;;35.80;48.30;;;;;;5053616;28;20119;-72
2022/07/21 11:22:16;;;;;;;6.60;2.25;;;35.70;48.40;;;;;;5053326;28;20017;-71
2022/07/21 11:24:46;;;;;;;;;;;36.00;48.40;;;;;;5054113;28;20083;-71
2022/07/21 11:27:16;;;;;;;4.72;2.10;;;35.90;48.00;;;;;;5053077;28;19958;-73
2022/07/21 11:29:46;;;;;;;4.10;2.03;;;35.50;48.80;;;;;;5053235;28;20041;-72
2022/07/21 11:32:14;;;;;;;8.00;2.45;;;35.90;48.20;;;;;;5045960;28;20021;-68
2022/07/21 11:34:44;;;;;;;5.82;2.30;;;35.80;47.60;;;;;;5048732;28;20021;-67
2022/07/21 11:37:13;;;;;;;3.33;2.20;;;35.80;47.00;;;;;;5052647;28;20036;-72
2022/07/21 11:39:39;;;;;;;4.68;2.17;;;35.90;48.00;;;;;;5052798;28;20028;-71
2022/07/21 11:42:11;;;;;;;6.28;2.63;;;35.90;47.40;;;;;;5053139;28;20060;-72
2022/07/21 11:44:38;;;;;;;4.85;2.80;;;35.90;46.40;;;;;;5053669;28;20483;-70
2022/07/21 11:47:06;;;;;;;5.05;2.70;;;35.80;45.80;;;;;;5053207;28;20028;-72
2022/07/21 11:49:33;;;;;;;6.95;2.72;;;35.70;45.80;;;;;;5052814;28;20380;-71
2022/07/21 11:52:03;;;;;;;4.82;2.15;;;35.80;45.90;;;;;;5053304;28;20025;-70
2022/07/21 11:54:51;;;;;;;6.35;2.50;;;35.80;46.10;;;;;;5053081;28;20021;-71
2022/07/21 11:57:19;;;;;;;7.47;2.40;;;35.80;46.80;;;;;;5052636;28;20040;-74
2022/07/21 11:59:47;;;;;;;8.77;2.10;;;36.00;46.40;;;;;;5053080;28;20017;-71
2022/07/21 12:02:24;;;;;;;8.05;1.88;;;35.90;46.30;;;;;;5052657;28;20123;-72
2022/07/21 12:04:51;;;;;;;8.55;2.13;;;36.20;46.80;;;;;;5052868;28;20044;-71
2022/07/21 12:07:42;;;;;;;5.15;2.40;;;36.20;45.30;;;;;;5052980;28;20025;-68
2022/07/21 12:10:21;;;;;;;4.80;2.25;;;36.00;45.20;;;;;;5052524;28;20025;-72
2022/07/21 12:12:49;;;;;;;6.35;2.20;;;36.00;46.00;;;;;;5052253;28;20025;-73
2022/07/21 12:15:29;;;;;;;4.45;1.98;;;36.00;45.30;;;;;;5052459;28;20035;-72
2022/07/21 12:18:05;;;;;;;2.60;1.73;;;36.10;46.50;;;;;;5052159;28;20021;-71
2022/07/21 12:20:31;;;;;;;6.53;2.38;;;35.90;44.60;;;;;;5052237;28;20131;-71
2022/07/21 12:22:58;;;;;;;2.13;1.80;;;35.90;44.60;;;;;;5052540;28;20017;-71
2022/07/21 12:25:36;;;;;;;4.05;1.73;;;35.80;45.50;;;;;;5052464;28;20040;-71
2022/07/21 12:28:03;;;;;;;3.95;2.20;;;35.60;44.70;;;;;;5052162;28;20032;-71
2022/07/21 12:30:44;;;;;;;2.65;2.00;;;35.70;46.00;;;;;;5051308;28;20407;-70
2022/07/21 12:33:28;;;;;;;2.97;2.20;;;35.70;45.20;;;;;;5051595;28;20037;-72
2022/07/21 12:36:06;;;;;;;4.95;2.15;;;35.70;44.80;;;;;;5051791;28;20036;-72
2022/07/21 12:38:41;;;;;;;6.35;2.17;;;35.80;45.50;;;;;;5051945;28;20048;-71
2022/07/21 12:41:08;;;;;;;3.53;2.05;;;35.80;45.10;;;;;;5051883;28;20656;-71
2022/07/21 12:43:34;;;;;;;3.85;2.42;;;35.80;45.50;;;;;;5051847;28;20013;-70
2022/07/21 12:46:01;;;;;;;4.32;2.20;;;35.80;45.80;;;;;;5052063;28;20190;-72
2022/07/21 12:48:32;;;;;;;5.40;2.45;;;35.90;45.70;;;;;;5051776;28;20387;-71
2022/07/21 12:51:13;;;;;;;;;;;36.00;46.20;;;;;;5051211;28;20029;-71
2022/07/21 12:53:48;;;;;;;5.05;2.15;;;35.90;44.80;;;;;;5051928;28;19912;-72